Time;durP1;ratioP1;P1;durP2;ratioP2;P2;SDS_P1;SDS_P2;PMS_P1;PMS_P2;Temp;Humidity;BMP_temperature;BMP_pressure;BME280_temperature;BME280_humidity;BME280_pressure;Samples;Min_cycle;Max_cycle;Signal;HPM_P1;HPM_P2
2021/08/14 00:01:56;;;;;;;;;;;16.20;99.90;;;;;;5084763;28;19916;-78
2021/08/14 00:04:22;;;;;;;;;;;16.20;99.90;;;;;;5090317;28;19916;-78
2021/08/14 00:06:47;;;;;;;;;;;16.20;99.90;;;;;;5088691;28;20262;-79
2021/08/14 00:09:13;;;;;;;;;;;16.20;99.90;;;;;;5094280;28;19919;-78
2021/08/14 00:11:38;;;;;;;;;;;16.20;99.90;;;;;;5081262;28;21356;-78
2021/08/14 00:14:04;;;;;;;;;;;16.20;99.90;;;;;;5097516;28;19929;-78
2021/08/14 00:16:30;;;;;;;;;;;16.20;99.90;;;;;;5098803;28;19912;-78
2021/08/14 00:18:55;;;;;;;;;;;16.20;99.90;;;;;;5089131;28;19916;-78
2021/08/14 00:21:21;;;;;;;;;;;16.20;99.90;;;;;;5094167;28;19912;-77
2021/08/14 00:23:46;;;;;;;;;;;16.20;99.90;;;;;;5088636;28;19939;-78
2021/08/14 00:26:12;;;;;;;;;;;16.20;99.90;;;;;;5100329;28;19926;-78
2021/08/14 00:28:37;;;;;;;;;;;16.20;99.90;;;;;;5098999;28;20354;-79
2021/08/14 00:31:03;;;;;;;;;;;16.20;99.90;;;;;;5089274;28;19920;-79
2021/08/14 00:33:29;;;;;;;;;;;16.20;99.90;;;;;;5079099;28;19916;-78
2021/08/14 00:35:54;;;;;;;;;;;16.30;99.90;;;;;;5087272;28;19989;-79
2021/08/14 00:38:20;;;;;;;;;;;16.30;99.90;;;;;;5101172;28;19912;-79
2021/08/14 00:40:45;;;;;;;;;;;16.30;99.90;;;;;;5092378;28;19912;-79
2021/08/14 00:43:11;;;;;;;;;;;16.30;99.90;;;;;;5078501;28;20326;-78
2021/08/14 00:45:38;;;;;;;;;;;16.30;99.90;;;;;;5086499;28;19916;-78
2021/08/14 00:48:05;;;;;;;;;;;16.30;99.90;;;;;;5088726;28;19955;-78
2021/08/14 00:50:30;;;;;;;;;;;16.30;99.90;;;;;;5088556;28;19916;-78
2021/08/14 00:52:56;;;;;;;;;;;16.40;99.90;;;;;;5098129;28;20198;-78
2021/08/14 00:55:22;;;;;;;;;;;16.40;99.90;;;;;;5093666;28;20321;-79
2021/08/14 00:57:48;;;;;;;;;;;16.40;99.90;;;;;;5089027;28;20214;-78
2021/08/14 01:00:14;;;;;;;;;;;16.40;99.90;;;;;;5085483;28;19916;-78
2021/08/14 01:02:39;;;;;;;;;;;16.40;99.90;;;;;;5093586;28;20026;-80
2021/08/14 01:05:05;;;;;;;;;;;16.40;99.90;;;;;;5094980;28;19969;-79
2021/08/14 01:07:31;;;;;;;;;;;16.40;99.90;;;;;;5083019;28;20299;-77
2021/08/14 01:09:56;;;;;;;;;;;16.40;99.90;;;;;;5082603;28;20299;-78
2021/08/14 01:12:22;;;;;;;;;;;16.40;99.90;;;;;;5099494;28;19983;-78
2021/08/14 01:14:48;;;;;;;;;;;16.40;99.90;;;;;;5099220;28;19908;-79
2021/08/14 01:17:14;;;;;;;;;;;16.40;99.90;;;;;;5090032;28;20361;-78
2021/08/14 01:19:41;;;;;;;;;;;16.40;99.90;;;;;;5088419;28;20003;-80
2021/08/14 01:22:13;;;;;;;;;;;16.40;99.90;;;;;;5101671;28;19916;-79
2021/08/14 01:24:39;;;;;;;;;;;16.40;99.90;;;;;;5095958;28;19979;-78
2021/08/14 01:27:08;;;;;;;;;;;16.40;99.90;;;;;;5092790;28;20378;-79
2021/08/14 01:29:37;;;;;;;;;;;16.40;99.90;;;;;;5085816;28;19913;-79
2021/08/14 01:32:03;;;;;;;;;;;16.40;99.90;;;;;;5085696;28;19963;-78
2021/08/14 01:34:29;;;;;;;;;;;16.40;99.90;;;;;;5083086;28;19912;-78
2021/08/14 01:36:55;;;;;;;;;;;16.40;99.90;;;;;;5095342;28;19915;-78
2021/08/14 01:39:20;;;;;;;;;;;16.40;99.90;;;;;;5095839;28;19912;-78
2021/08/14 01:41:57;;;;;;;;;;;16.40;99.90;;;;;;5096209;28;19923;-79
2021/08/14 01:44:22;;;;;;;;;;;16.40;99.90;;;;;;5092259;28;20010;-78
2021/08/14 01:46:48;;;;;;;;;;;16.40;99.90;;;;;;5090086;28;20037;-78
2021/08/14 01:49:14;;;;;;;;;;;16.40;99.90;;;;;;5087294;28;20295;-78
2021/08/14 01:51:39;;;;;;;;;;;16.40;99.90;;;;;;5076002;28;19962;-79
2021/08/14 01:54:05;;;;;;;;;;;16.30;99.90;;;;;;5086271;28;19915;-79
2021/08/14 01:56:31;;;;;;;;;;;16.40;99.90;;;;;;5090227;28;19916;-78
2021/08/14 01:58:56;;;;;;;;;;;16.40;99.90;;;;;;5082926;28;20014;-78
2021/08/14 02:01:23;;;;;;;;;;;16.40;99.90;;;;;;5081317;28;20366;-79
2021/08/14 02:03:48;;;;;;;;;;;16.40;99.90;;;;;;5089414;28;19991;-79
2021/08/14 02:06:17;;;;;;;;;;;16.30;99.90;;;;;;5088402;28;20278;-78
2021/08/14 02:08:42;;;;;;;;;;;16.40;99.90;;;;;;5091262;28;19955;-78
2021/08/14 02:11:15;;;;;;;;;;;16.30;99.90;;;;;;5085587;28;19993;-78
2021/08/14 02:13:41;;;;;;;;;;;16.40;99.90;;;;;;5085447;28;20002;-78
2021/08/14 02:16:07;;;;;;;;;;;16.40;99.90;;;;;;5081004;28;19917;-78
2021/08/14 02:18:33;;;;;;;;;;;16.40;99.90;;;;;;5091599;28;19915;-78
2021/08/14 02:20:58;;;;;;;;;;;16.40;99.90;;;;;;5090131;28;19920;-78
2021/08/14 02:23:24;;;;;;;;;;;16.50;99.90;;;;;;5086287;28;20336;-79
2021/08/14 02:25:50;;;;;;;;;;;16.50;99.90;;;;;;5085209;28;19916;-77
2021/08/14 02:28:15;;;;;;;;;;;16.50;99.90;;;;;;5093984;28;19939;-79
2021/08/14 02:30:41;;;;;;;;;;;16.50;99.90;;;;;;5120337;28;20007;-78
2021/08/14 02:33:06;;;;;;;;;;;16.50;99.90;;;;;;5096051;28;19966;-80
2021/08/14 02:35:32;;;;;;;;;;;16.50;99.90;;;;;;5105748;28;19993;-79
2021/08/14 02:37:57;;;;;;;;;;;16.60;99.90;;;;;;5101362;28;19915;-79
2021/08/14 02:40:23;;;;;;;;;;;16.60;99.90;;;;;;5105300;28;19962;-78
2021/08/14 02:42:49;;;;;;;;;;;16.50;99.90;;;;;;5093749;28;19919;-78
2021/08/14 02:45:14;;;;;;;;;;;16.50;99.90;;;;;;5102140;28;20266;-78
2021/08/14 02:47:40;;;;;;;;;;;16.50;99.90;;;;;;5106313;28;20564;-78
2021/08/14 02:50:06;;;;;;;;;;;16.50;99.90;;;;;;5105894;28;19908;-78
2021/08/14 02:52:32;;;;;;;;;;;16.40;99.90;;;;;;5099886;28;20002;-79
2021/08/14 02:54:57;;;;;;;;;;;16.40;99.90;;;;;;5106895;28;19912;-78
2021/08/14 02:57:23;;;;;;;;;;;16.40;99.90;;;;;;5103990;28;19915;-79
2021/08/14 02:59:48;;;;;;;;;;;16.40;99.90;;;;;;5110660;28;19912;-78
2021/08/14 03:02:14;;;;;;;;;;;16.40;99.90;;;;;;5109622;28;19940;-78
2021/08/14 03:04:39;;;;;;;;;;;16.40;99.90;;;;;;5101137;28;19964;-79
2021/08/14 03:07:05;;;;;;;;;;;16.40;99.90;;;;;;5101435;28;19923;-78
2021/08/14 03:09:31;;;;;;;;;;;16.40;99.90;;;;;;5105107;28;19909;-78
2021/08/14 03:11:56;;;;;;;;;;;16.40;99.90;;;;;;5110960;28;19959;-78
2021/08/14 03:14:22;;;;;;;;;;;16.40;99.90;;;;;;5102962;28;19919;-78
2021/08/14 03:16:47;;;;;;;;;;;16.40;99.90;;;;;;5101300;28;19989;-79
2021/08/14 03:19:13;;;;;;;;;;;16.40;99.90;;;;;;5107870;28;20056;-78
2021/08/14 03:21:38;;;;;;;;;;;16.40;99.90;;;;;;5105996;28;19919;-78
2021/08/14 03:24:04;;;;;;;;;;;16.30;99.90;;;;;;5097855;28;20004;-78
2021/08/14 03:26:30;;;;;;;;;;;16.40;99.90;;;;;;5096593;28;19912;-78
2021/08/14 03:28:55;;;;;;;;;;;16.40;99.90;;;;;;5102641;28;20037;-78
2021/08/14 03:31:21;;;;;;;;;;;16.40;99.90;;;;;;5100089;28;19920;-79
2021/08/14 03:33:47;;;;;;;;;;;16.40;99.90;;;;;;5107621;28;20032;-79
2021/08/14 03:36:13;;;;;;;;;;;16.40;99.90;;;;;;5091736;28;19913;-78
2021/08/14 03:38:38;;;;;;;;;;;16.40;99.90;;;;;;5108331;28;19912;-78
2021/08/14 03:41:06;;;;;;;;;;;16.50;99.90;;;;;;5096349;28;19912;-78
2021/08/14 03:43:31;;;;;;;;;;;16.40;99.90;;;;;;5082370;28;19923;-78
2021/08/14 03:45:57;;;;;;;;;;;16.50;99.90;;;;;;5088733;28;19909;-78
2021/08/14 03:48:22;;;;;;;;;;;16.50;99.90;;;;;;5091973;28;19942;-78
2021/08/14 03:50:48;;;;;;;;;;;16.50;99.90;;;;;;5084716;28;19909;-77
2021/08/14 03:53:14;;;;;;;;;;;16.50;99.90;;;;;;5094612;28;19908;-78
2021/08/14 03:55:39;;;;;;;;;;;16.50;99.90;;;;;;5091102;28;20299;-78
2021/08/14 03:58:05;;;;;;;;;;;16.50;99.90;;;;;;5082457;28;19916;-78
2021/08/14 04:00:30;;;;;;;;;;;16.50;99.90;;;;;;5085544;28;20314;-78
2021/08/14 04:02:56;;;;;;;;;;;16.50;99.90;;;;;;5083418;28;20526;-78
2021/08/14 04:05:22;;;;;;;;;;;16.50;99.90;;;;;;5093641;28;19919;-78
2021/08/14 04:07:47;;;;;;;;;;;16.50;99.90;;;;;;5090818;28;19939;-78
2021/08/14 04:10:13;;;;;;;;;;;16.40;99.90;;;;;;5107295;28;19960;-78
2021/08/14 04:12:38;;;;;;;;;;;16.30;99.90;;;;;;5087655;28;19914;-78
2021/08/14 04:15:05;;;;;;;;;;;16.30;99.90;;;;;;5086936;28;20246;-79
2021/08/14 04:17:31;;;;;;;;;;;16.30;99.90;;;;;;5094716;28;20357;-79
2021/08/14 04:19:57;;;;;;;;;;;16.30;99.90;;;;;;5088546;28;19912;-78
2021/08/14 04:22:22;;;;;;;;;;;16.20;99.90;;;;;;5095157;28;20003;-78
2021/08/14 04:24:48;;;;;;;;;;;16.10;99.90;;;;;;5084389;28;19973;-78
2021/08/14 04:27:13;;;;;;;;;;;16.20;99.90;;;;;;5085626;28;19912;-78
2021/08/14 04:29:39;;;;;;;;;;;16.10;99.90;;;;;;5110231;28;19939;-77
2021/08/14 04:32:05;;;;;;;;;;;16.10;99.90;;;;;;5088167;28;19920;-78
2021/08/14 04:34:30;;;;;;;;;;;16.20;99.90;;;;;;5104568;28;19920;-80
2021/08/14 04:36:56;;;;;;;;;;;16.20;99.90;;;;;;5085172;28;20335;-78
2021/08/14 04:39:21;;;;;;;;;;;16.20;99.90;;;;;;5086507;28;19912;-78
2021/08/14 04:41:47;;;;;;;;;;;16.20;99.90;;;;;;5088775;28;19953;-78
2021/08/14 04:44:13;;;;;;;;;;;16.20;99.90;;;;;;5081009;28;19920;-78
2021/08/14 04:46:38;;;;;;;;;;;16.10;99.90;;;;;;5085933;28;19912;-78
2021/08/14 04:49:04;;;;;;;;;;;16.10;99.90;;;;;;5091537;28;20053;-79
2021/08/14 04:51:29;;;;;;;;;;;16.10;99.90;;;;;;5079555;28;19916;-78
2021/08/14 04:53:56;;;;;;;;;;;16.20;99.90;;;;;;5093332;28;19915;-78
2021/08/14 04:56:22;;;;;;;;;;;16.10;99.90;;;;;;5086606;28;19912;-78
2021/08/14 04:58:48;;;;;;;;;;;16.00;99.90;;;;;;5093610;28;19939;-78
2021/08/14 05:01:13;;;;;;;;;;;16.10;99.90;;;;;;5089096;28;19951;-78
2021/08/14 05:03:39;;;;;;;;;;;16.10;99.90;;;;;;5080928;28;19981;-78
2021/08/14 05:06:08;;;;;;;;;;;16.20;99.90;;;;;;5089432;28;19951;-79
2021/08/14 05:08:34;;;;;;;;;;;16.20;99.90;;;;;;5089648;28;19912;-79
2021/08/14 05:11:00;;;;;;;;;;;16.20;99.90;;;;;;5091398;28;19912;-79
2021/08/14 05:13:26;;;;;;;;;;;16.10;99.90;;;;;;5090751;28;20226;-78
2021/08/14 05:15:51;;;;;;;;;;;16.20;99.90;;;;;;5082107;28;19973;-78
2021/08/14 05:18:17;;;;;;;;;;;16.20;99.90;;;;;;5087064;28;20307;-79
2021/08/14 05:20:43;;;;;;;;;;;16.20;99.90;;;;;;5081285;28;19962;-78
2021/08/14 05:23:08;;;;;;;;;;;16.20;99.90;;;;;;5083463;28;19920;-78
2021/08/14 05:25:34;;;;;;;;;;;16.10;99.90;;;;;;5083604;28;19951;-78
2021/08/14 05:27:59;;;;;;;;;;;16.20;99.90;;;;;;5082517;28;19926;-77
2021/08/14 05:30:25;;;;;;;;;;;16.10;99.90;;;;;;5079920;28;19923;-78
2021/08/14 05:32:51;;;;;;;;;;;16.10;99.90;;;;;;5083726;28;19931;-78
2021/08/14 05:35:18;;;;;;;;;;;16.10;99.90;;;;;;5083215;28;20342;-79
2021/08/14 05:37:44;;;;;;;;;;;16.20;99.90;;;;;;5082548;28;19916;-78
2021/08/14 05:40:10;;;;;;;;;;;16.20;99.90;;;;;;5082841;28;19917;-79
2021/08/14 05:42:35;;;;;;;;;;;16.20;99.90;;;;;;5085076;28;19920;-78
2021/08/14 05:45:01;;;;;;;;;;;16.30;99.90;;;;;;5077953;28;20007;-78
2021/08/14 05:47:26;;;;;;;;;;;16.30;99.90;;;;;;5106523;28;19920;-80
2021/08/14 05:49:52;;;;;;;;;;;16.30;99.90;;;;;;5085486;28;20299;-78
2021/08/14 05:52:17;;;;;;;;;;;16.40;99.90;;;;;;5083769;28;19917;-79
2021/08/14 05:54:43;;;;;;;;;;;16.40;99.90;;;;;;5084277;28;19919;-78
2021/08/14 05:57:09;;;;;;;;;;;16.40;99.90;;;;;;5085391;28;19919;-79
2021/08/14 05:59:34;;;;;;;;;;;16.40;99.90;;;;;;5082145;28;20018;-78
2021/08/14 06:02:00;;;;;;;;;;;16.30;99.90;;;;;;5083374;28;19912;-78
2021/08/14 06:04:25;;;;;;;;;;;16.30;99.90;;;;;;5083093;28;20010;-77
2021/08/14 06:06:51;;;;;;;;;;;16.30;99.90;;;;;;5079009;28;19924;-77
2021/08/14 06:09:16;;;;;;;;;;;16.40;99.90;;;;;;5082036;28;20270;-77
2021/08/14 06:11:42;;;;;;;;;;;16.30;99.90;;;;;;5084819;28;19971;-78
2021/08/14 06:14:07;;;;;;;;;;;16.40;99.90;;;;;;5097665;28;19927;-78
2021/08/14 06:16:33;;;;;;;;;;;16.50;99.90;;;;;;5092708;28;19922;-78
2021/08/14 06:18:59;;;;;;;;;;;16.60;99.90;;;;;;5103681;28;20016;-78
2021/08/14 06:21:24;;;;;;;;;;;16.60;99.90;;;;;;5111701;28;19943;-78
2021/08/14 06:23:50;;;;;;;;;;;16.60;99.90;;;;;;5098030;28;20007;-78
2021/08/14 06:26:15;;;;;;;;;;;16.70;99.90;;;;;;5108692;27;19920;-78
2021/08/14 06:28:41;;;;;;;;;;;16.80;99.90;;;;;;5095813;28;19947;-78
2021/08/14 06:31:07;;;;;;;;;;;16.80;99.90;;;;;;5097058;28;19923;-78
2021/08/14 06:33:33;;;;;;;;;;;16.90;99.90;;;;;;5098393;28;20232;-78
2021/08/14 06:35:58;;;;;;;;;;;17.00;99.90;;;;;;5112128;27;19942;-80
2021/08/14 06:38:24;;;;;;;;;;;17.00;99.90;;;;;;5098276;28;19916;-77
2021/08/14 06:40:49;;;;;;;;;;;17.00;99.90;;;;;;5099539;28;19916;-78
2021/08/14 06:43:15;;;;;;;;;;;17.10;99.90;;;;;;5096046;28;19912;-78
2021/08/14 06:45:40;;;;;;;;;;;17.10;99.90;;;;;;5094369;28;20314;-78
2021/08/14 06:48:06;;;;;;;;;;;17.10;99.90;;;;;;5091572;28;20030;-78
2021/08/14 06:50:32;;;;;;;;;;;17.10;99.90;;;;;;5088051;28;19932;-79
2021/08/14 06:52:57;;;;;;;;;;;17.10;99.90;;;;;;5090433;28;19921;-79
2021/08/14 06:55:23;;;;;;;;;;;17.20;99.90;;;;;;5091123;28;19920;-78
2021/08/14 06:57:48;;;;;;;;;;;17.20;99.90;;;;;;5091377;28;19955;-78
2021/08/14 07:00:14;;;;;;;;;;;17.30;99.90;;;;;;5096461;28;19923;-79
2021/08/14 07:02:41;;;;;;;;;;;17.30;99.90;;;;;;5091998;28;19927;-79
2021/08/14 07:05:07;;;;;;;;;;;17.40;99.90;;;;;;5093966;28;20310;-79
2021/08/14 07:07:33;;;;;;;;;;;17.50;99.90;;;;;;5089002;28;19934;-80
2021/08/14 07:09:58;;;;;;;;;;;17.50;99.90;;;;;;5095092;28;20386;-79
2021/08/14 07:12:24;;;;;;;;;;;17.60;99.90;;;;;;5090640;28;19966;-79
2021/08/14 07:14:50;;;;;;;;;;;17.60;99.90;;;;;;5089336;28;19951;-80
2021/08/14 07:17:15;;;;;;;;;;;17.70;99.90;;;;;;5093124;28;19972;-79
2021/08/14 07:19:41;;;;;;;;;;;17.70;99.90;;;;;;5086993;28;19912;-78
2021/08/14 07:22:06;;;;;;;;;;;17.80;99.90;;;;;;5089426;28;19927;-80
2021/08/14 07:24:33;;;;;;;;;;;17.80;99.90;;;;;;5090580;28;20369;-79
2021/08/14 07:26:58;;;;;;;;;;;17.80;99.90;;;;;;5108424;27;19962;-78
2021/08/14 07:29:25;;;;;;;;;;;17.90;99.90;;;;;;5086090;28;20028;-77
2021/08/14 07:31:50;;;;;;;;;;;17.90;99.90;;;;;;5087035;28;20319;-80
2021/08/14 07:34:16;;;;;;;;;;;17.90;99.90;;;;;;5084855;28;19912;-79
2021/08/14 07:36:41;;;;;;;;;;;17.90;99.90;;;;;;5085430;28;20299;-80
2021/08/14 07:39:07;;;;;;;;;;;18.00;99.90;;;;;;5110078;28;20239;-80
2021/08/14 07:41:32;;;;;;;;;;;18.00;99.90;;;;;;5083738;28;19919;-78
2021/08/14 07:43:58;;;;;;;;;;;18.00;99.90;;;;;;5099983;28;19912;-79
2021/08/14 07:46:23;;;;;;;;;;;18.10;99.90;;;;;;5092804;28;20314;-79
2021/08/14 07:48:49;;;;;;;;;;;18.10;99.90;;;;;;5094445;28;20390;-79
2021/08/14 07:51:15;;;;;;;;;;;18.20;99.90;;;;;;5090522;28;19920;-79
2021/08/14 07:53:40;;;;;;;;;;;18.20;99.90;;;;;;5082735;28;19927;-79
2021/08/14 07:56:06;;;;;;;;;;;18.30;99.90;;;;;;5090532;28;20269;-80
2021/08/14 07:58:33;;;;;;;;;;;18.30;99.90;;;;;;5092859;28;20329;-80
2021/08/14 08:00:59;;;;;;;;;;;18.30;99.90;;;;;;5095067;28;19923;-80
2021/08/14 08:03:24;;;;;;;;;;;18.40;99.90;;;;;;5088660;28;19913;-81
2021/08/14 08:05:50;;;;;;;;;;;18.40;99.90;;;;;;5093062;28;19916;-80
2021/08/14 08:08:15;;;;;;;;;;;18.40;99.90;;;;;;5090093;28;20253;-80
2021/08/14 08:10:41;;;;;;;;;;;18.60;99.90;;;;;;5090210;28;20023;-80
2021/08/14 08:13:07;;;;;;;;;;;18.70;99.90;;;;;;5092012;28;19920;-79
2021/08/14 08:15:32;;;;;;;;;;;18.70;99.90;;;;;;5092559;28;19912;-81
2021/08/14 08:17:58;;;;;;;;;;;18.80;99.90;;;;;;5091342;28;19920;-79
2021/08/14 08:20:24;;;;;;;;;;;19.00;99.90;;;;;;5094838;28;20322;-80
2021/08/14 08:22:49;;;;;;;;;;;19.30;99.90;;;;;;5092410;28;20003;-80
2021/08/14 08:25:16;;;;;;;;;;;19.60;99.90;;;;;;5092309;28;19927;-80
2021/08/14 08:27:43;;;;;;;;;;;19.90;99.90;;;;;;5089336;28;19970;-80
2021/08/14 08:30:10;;;;;;;;;;;20.10;99.90;;;;;;5087043;28;19923;-81
2021/08/14 08:32:37;;;;;;;;;;;20.10;99.90;;;;;;5093640;28;19923;-80
2021/08/14 08:35:03;;;;;;;;;;;20.20;99.90;;;;;;5093868;28;19916;-81
2021/08/14 08:37:31;;;;;;;;;;;20.40;99.90;;;;;;5094438;28;19923;-79
2021/08/14 08:39:57;;;;;;;;;;;20.60;99.90;;;;;;5102594;28;20007;-81
2021/08/14 08:42:22;;;;;;;;;;;20.80;99.90;;;;;;5091762;28;20031;-80
2021/08/14 08:44:48;;;;;;;;;;;20.90;99.90;;;;;;5091038;28;19919;-79
2021/08/14 08:47:14;;;;;;;;;;;21.10;99.90;;;;;;5085313;28;19920;-80
2021/08/14 08:49:51;;;;;;;;;;;21.30;99.90;;;;;;5094534;28;19950;-81
2021/08/14 08:52:17;;;;;;;;;;;21.60;99.90;;;;;;5098204;28;20269;-82
2021/08/14 08:54:42;;;;;;;;;;;21.90;99.90;;;;;;5086126;28;20006;-80
2021/08/14 08:57:08;;;;;;;;;;;21.90;99.90;;;;;;5081112;28;19919;-79
2021/08/14 08:59:33;;;;;;;;;;;21.90;99.90;;;;;;5086659;28;19926;-79
2021/08/14 09:01:59;;;;;;;;;;;21.80;99.90;;;;;;5087595;28;19919;-80
2021/08/14 09:04:26;;;;;;;;;;;21.60;99.90;;;;;;5084203;28;19939;-80
2021/08/14 09:06:52;;;;;;;;;;;21.60;99.90;;;;;;5088938;28;19969;-80
2021/08/14 09:09:24;;;;;;;;;;;21.70;99.90;;;;;;5083006;28;19965;-80
2021/08/14 09:11:50;;;;;;;;;;;21.70;99.90;;;;;;5086455;28;19916;-80
2021/08/14 09:14:16;;;;;;;;;;;21.60;99.90;;;;;;5086175;28;19916;-79
2021/08/14 09:16:41;;;;;;;;;;;21.60;99.90;;;;;;5082264;28;20054;-80
2021/08/14 09:19:08;;;;;;;;;;;21.70;99.90;;;;;;5082819;28;19916;-80
2021/08/14 09:21:38;;;;;;;;;;;21.80;99.90;;;;;;5083341;28;19920;-78
2021/08/14 09:24:05;;;;;;;;;;;21.80;99.90;;;;;;5082198;28;20360;-82
2021/08/14 09:26:45;;;;;;;;;;;21.80;99.90;;;;;;5085930;28;19923;-81
2021/08/14 09:29:11;;;;;;;;;;;21.80;99.90;;;;;;5082452;28;19917;-82
2021/08/14 09:31:50;;;;;;;;;;;21.80;99.90;;;;;;5081806;28;19924;-78
2021/08/14 09:34:20;;;;;;;;;;;21.80;99.90;;;;;;5084106;28;19919;-81
2021/08/14 09:37:03;;;;;;;;;;;21.80;99.90;;;;;;5084399;28;19927;-79
2021/08/14 09:39:29;;;;;;;;;;;21.80;99.90;;;;;;5081895;28;20266;-79
2021/08/14 09:42:05;;;;;;;;;;;21.80;99.90;;;;;;5083706;28;19913;-81
2021/08/14 09:44:31;;;;;;;;;;;21.80;99.90;;;;;;5085777;28;19919;-81
2021/08/14 09:46:57;;;;;;;;;;;21.80;99.90;;;;;;5084343;28;20015;-81
2021/08/14 09:49:22;;;;;;;;;;;21.80;99.90;;;;;;5088048;28;19911;-81
2021/08/14 09:51:48;;;;;;;;;;;21.90;99.90;;;;;;5110987;28;19958;-81
2021/08/14 09:54:14;;;;;;;;;;;21.80;99.90;;;;;;5089092;28;19966;-80
2021/08/14 09:56:40;;;;;;;;;;;21.60;99.90;;;;;;5104412;28;20254;-80
2021/08/14 09:59:07;;;;;;;;;;;21.30;99.90;;;;;;5089782;28;19927;-80
2021/08/14 10:01:35;;;;;;;;;;;21.30;99.90;;;;;;5087712;28;19912;-79
2021/08/14 10:04:02;;;;;;;;;;;21.40;99.90;;;;;;5090131;28;20315;-80
2021/08/14 10:06:28;;;;;;;;;;;21.60;99.90;;;;;;5087793;28;19989;-81
2021/08/14 10:08:53;;;;;;;;;;;21.70;99.90;;;;;;5089480;28;19986;-81
2021/08/14 10:11:21;;;;;;;;;;;21.70;99.90;;;;;;5090546;28;19916;-80
2021/08/14 10:13:47;;;;;;;;;;;21.50;99.90;;;;;;5085462;28;20330;-81
2021/08/14 10:16:13;;;;;;;;;;;21.40;99.90;;;;;;5088371;28;19916;-78
2021/08/14 10:18:40;;;;;;;;;;;21.20;99.90;;;;;;5088546;28;19959;-80
2021/08/14 10:21:06;;;;;;;;;;;21.10;99.90;;;;;;5091099;28;19951;-80
2021/08/14 10:23:32;;;;;;;;;;;21.10;99.90;;;;;;5092302;28;20010;-80
2021/08/14 10:26:02;;;;;;;;;;;21.20;99.90;;;;;;5092470;28;20007;-81
2021/08/14 10:28:41;;;;;;;;;;;21.20;99.90;;;;;;5093659;28;19924;-80
2021/08/14 10:31:06;;;;;;;;;;;21.20;99.90;;;;;;5094299;28;20011;-81
2021/08/14 10:33:33;;;;;;;;;;;21.30;99.90;;;;;;5103864;28;20345;-80
2021/08/14 10:36:18;;;;;;;;;;;21.40;99.90;;;;;;5083804;28;19942;-80
2021/08/14 10:38:47;;;;;;;;;;;21.50;99.90;;;;;;5084030;28;19991;-79
2021/08/14 10:41:13;;;;;;;;;;;21.40;99.90;;;;;;5093219;28;19926;-77
2021/08/14 10:43:48;;;;;;;;;;;21.50;99.90;;;;;;5104113;28;19908;-81
2021/08/14 10:46:32;;;;;;;;;;;21.70;99.90;;;;;;5101497;28;19920;-79
2021/08/14 10:48:58;;;;;;;;;;;22.00;99.90;;;;;;5087564;28;20218;-80
2021/08/14 10:51:43;;;;;;;;;;;22.20;99.90;;;;;;5104389;28;19916;-80
2021/08/14 10:54:08;;;;;;;;;;;22.50;99.90;;;;;;5112682;28;20257;-78
2021/08/14 10:56:53;;;;;;;;;;;22.70;99.90;;;;;;5102781;28;19917;-78
2021/08/14 10:59:37;;;;;;;;;;;23.00;99.90;;;;;;5090537;28;19997;-79
2021/08/14 11:02:06;;;;;;;;;;;23.10;99.90;;;;;;5091775;28;19912;-79
2021/08/14 11:04:32;;;;;;;;;;;23.00;99.90;;;;;;5088996;28;19912;-78
2021/08/14 11:07:20;;;;;;;;;;;23.00;99.90;;;;;;5086290;28;20211;-78
2021/08/14 11:09:46;;;;;;;;;;;22.90;99.90;;;;;;5086852;28;19917;-80
2021/08/14 11:12:30;;;;;;;;;;;22.70;99.90;;;;;;5086286;28;20360;-78
2021/08/14 11:15:12;;;;;;;;;;;22.60;99.90;;;;;;5087064;28;19919;-78
2021/08/14 11:17:37;;;;;;;;;;;22.60;99.90;;;;;;5086776;28;19916;-79
2021/08/14 11:20:03;;;;;;;;;;;22.60;99.90;;;;;;5085282;28;20382;-80
2021/08/14 11:22:40;;;;;;;;;;;22.50;99.90;;;;;;5085905;28;20345;-81
2021/08/14 11:25:19;;;;;;;;;;;22.50;99.90;;;;;;5089452;28;19947;-80
2021/08/14 11:27:55;;;;;;;;;;;22.70;99.90;;;;;;5092709;28;20379;-79
2021/08/14 11:30:24;;;;;;;;;;;22.90;99.90;;;;;;5102095;28;19921;-78
2021/08/14 11:32:50;;;;;;;;;;;23.00;99.90;;;;;;5084377;28;20208;-77
2021/08/14 11:35:16;;;;;;;;;;;23.10;99.90;;;;;;5086599;28;19934;-79
2021/08/14 11:37:52;;;;;;;;;;;23.20;99.90;;;;;;5087627;28;19920;-79
2021/08/14 11:40:22;;;;;;;;;;;23.30;99.90;;;;;;5087436;28;19912;-78
2021/08/14 11:42:56;;;;;;;;;;;23.30;99.90;;;;;;5084124;28;19913;-76
2021/08/14 11:45:22;;;;;;;;;;;23.30;99.90;;;;;;5085944;28;19927;-79
2021/08/14 11:47:57;;;;;;;;;;;23.40;99.90;;;;;;5085809;28;19916;-78
2021/08/14 11:50:23;;;;;;;;;;;23.40;99.90;;;;;;5089763;28;19981;-81
2021/08/14 11:52:48;;;;;;;;;;;23.60;99.90;;;;;;5084445;28;20291;-78
2021/08/14 11:55:14;;;;;;;;;;;23.60;99.90;;;;;;5084168;28;20008;-82
2021/08/14 11:57:40;;;;;;;;;;;23.70;99.90;;;;;;5090332;28;20133;-79
2021/08/14 12:00:18;;;;;;;;;;;23.70;99.90;;;;;;5100901;28;19917;-81
2021/08/14 12:02:44;;;;;;;;;;;23.90;99.90;;;;;;5092992;28;20025;-80
2021/08/14 12:05:10;;;;;;;;;;;24.00;99.90;;;;;;5091098;28;20303;-79
2021/08/14 12:07:36;;;;;;;;;;;24.00;99.90;;;;;;5097169;28;20314;-79
2021/08/14 12:10:01;;;;;;;;;;;24.00;99.90;;;;;;5094941;28;19957;-77
2021/08/14 12:12:28;;;;;;;;;;;23.90;99.90;;;;;;5095292;28;19912;-82
2021/08/14 12:14:54;;;;;;;;;;;23.80;99.90;;;;;;5096499;28;19912;-77
2021/08/14 12:17:19;;;;;;;;;;;23.80;99.90;;;;;;5107905;28;20294;-76
2021/08/14 12:19:46;;;;;;;;;;;23.80;99.90;;;;;;5094100;28;19912;-79
2021/08/14 12:22:16;;;;;;;;;;;23.60;99.90;;;;;;5085423;28;19912;-80
2021/08/14 12:24:44;;;;;;;;;;;23.50;99.90;;;;;;5091501;28;19935;-77
2021/08/14 12:27:26;;;;;;;;;;;23.40;99.90;;;;;;5086112;28;19946;-78
2021/08/14 12:29:52;;;;;;;;;;;23.40;99.90;;;;;;5090932;28;19920;-78
2021/08/14 12:32:17;;;;;;;;;;;23.50;99.90;;;;;;5088375;28;19980;-80
2021/08/14 12:34:44;;;;;;;;;;;23.60;99.90;;;;;;5097215;28;19968;-81
2021/08/14 12:37:11;;;;;;;;;;;23.70;99.90;;;;;;5094532;28;19916;-80
2021/08/14 12:39:54;;;;;;;;;;;23.70;99.90;;;;;;5087212;28;19912;-78
2021/08/14 12:42:21;;;;;;;;;;;23.80;99.90;;;;;;5095447;28;19940;-82
2021/08/14 12:44:47;;;;;;;;;;;23.90;99.90;;;;;;5090118;28;19915;-76
2021/08/14 12:47:13;;;;;;;;;;;23.90;99.90;;;;;;5109399;28;19915;-76
2021/08/14 12:49:39;;;;;;;;;;;23.90;99.90;;;;;;5080925;28;19912;-82
2021/08/14 12:52:06;;;;;;;;;;;23.90;99.90;;;;;;5093906;28;20101;-82
2021/08/14 12:54:39;;;;;;;;;;;24.00;99.90;;;;;;5093562;28;19916;-77
2021/08/14 12:57:09;;;;;;;;;;;24.10;99.90;;;;;;5086056;28;19912;-78
2021/08/14 12:59:35;;;;;;;;;;;24.00;99.90;;;;;;5092734;28;20057;-79
2021/08/14 13:02:04;;;;;;;;;;;24.00;99.90;;;;;;5093433;28;19934;-77
2021/08/14 13:04:30;;;;;;;;;;;24.00;99.90;;;;;;5092867;28;19912;-84
2021/08/14 13:06:55;;;;;;;;;;;24.00;99.90;;;;;;5086835;28;19920;-82
2021/08/14 13:09:21;;;;;;;;;;;24.00;99.90;;;;;;5087349;28;20386;-80
2021/08/14 13:11:47;;;;;;;;;;;23.80;99.90;;;;;;5079331;28;19927;-77
2021/08/14 13:14:12;;;;;;;;;;;23.90;99.90;;;;;;5083968;28;20303;-81
2021/08/14 13:16:38;;;;;;;;;;;23.90;99.90;;;;;;5081138;28;20218;-79
2021/08/14 13:19:03;;;;;;;;;;;24.00;99.90;;;;;;5080888;28;19955;-77
2021/08/14 13:21:29;;;;;;;;;;;24.10;99.90;;;;;;5090212;28;19920;-83
2021/08/14 13:23:55;;;;;;;;;;;24.10;99.90;;;;;;5098593;28;19908;-80
2021/08/14 13:26:20;;;;;;;;;;;24.10;99.90;;;;;;5093484;28;19919;-79
2021/08/14 13:28:46;;;;;;;;;;;24.00;99.90;;;;;;5098506;28;20249;-83
2021/08/14 13:31:12;;;;;;;;;;;24.00;99.90;;;;;;5096934;28;19927;-79
2021/08/14 13:33:38;;;;;;;;;;;24.00;99.90;;;;;;5088468;28;19912;-78
2021/08/14 13:36:03;;;;;;;;;;;24.00;99.90;;;;;;5087839;28;19935;-76
2021/08/14 13:38:30;;;;;;;;;;;24.00;99.90;;;;;;5090939;28;20031;-76
2021/08/14 13:40:55;;;;;;;;;;;24.00;99.90;;;;;;5092998;28;20326;-77
2021/08/14 13:43:21;;;;;;;;;;;24.00;99.90;;;;;;5091682;28;19912;-78
2021/08/14 13:45:46;;;;;;;;;;;24.10;99.90;;;;;;5088875;28;20345;-81
2021/08/14 13:48:12;;;;;;;;;;;24.10;99.90;;;;;;5098004;28;20255;-80
2021/08/14 13:50:37;;;;;;;;;;;24.20;99.90;;;;;;5090434;28;20203;-75
2021/08/14 13:53:03;;;;;;;;;;;24.10;99.90;;;;;;5093629;28;20325;-79
2021/08/14 13:55:29;;;;;;;;;;;24.20;99.90;;;;;;5092332;28;19920;-80
2021/08/14 13:57:57;;;;;;;;;;;24.20;99.90;;;;;;5088159;28;19927;-80
2021/08/14 14:00:23;;;;;;;;;;;24.20;99.90;;;;;;5088199;28;19959;-80
2021/08/14 14:02:49;;;;;;;;;;;24.20;99.90;;;;;;5096689;28;19950;-79
2021/08/14 14:05:14;;;;;;;;;;;24.20;99.90;;;;;;5085593;28;20062;-77
2021/08/14 14:07:42;;;;;;;;;;;24.30;99.90;;;;;;5090403;28;19920;-78
2021/08/14 14:10:08;;;;;;;;;;;24.20;99.90;;;;;;5109026;28;20271;-80
2021/08/14 14:12:33;;;;;;;;;;;24.20;99.90;;;;;;5094916;28;19919;-78
2021/08/14 14:14:59;;;;;;;;;;;24.20;99.90;;;;;;5088030;28;19908;-78